Time,TemperatureF,DewpointF,PressureIn,WindDirection,WindDirectionDegrees,WindSpeedMPH,WindSpeedGustMPH,Humidity,HourlyPrecipIn,Conditions,Clouds,dailyrainin,SoftwareType,DateUTC
2013-11-09 00:12:00,37.3,30.0,30.20,WNW,297,7.0,8.0,74,0.00,,,0.00,weatherlink.com 1.10,2013-11-09 05:12:00,
2013-11-09 00:27:00,37.4,30.0,30.20,West,272,8.0,13.0,74,0.00,,,0.00,weatherlink.com 1.10,2013-11-09 05:27:00,
2013-11-09 00:42:00,37.5,30.0,30.20,West,275,4.0,9.0,73,0.00,,,0.00,weatherlink.com 1.10,2013-11-09 05:42:00,
2013-11-09 00:57:00,37.2,30.0,30.19,West,260,4.0,8.0,74,0.00,,,0.00,weatherlink.com 1.10,2013-11-09 05:57:00,
2013-11-09 01:12:00,37.0,30.0,30.19,NW,304,6.0,9.0,75,0.00,,,0.00,weatherlink.com 1.10,2013-11-09 06:12:00,
2013-11-09 01:27:00,37.3,30.0,30.20,West,274,5.0,10.0,74,0.00,,,0.00,weatherlink.com 1.10,2013-11-09 06:27:00,
2013-11-09 01:42:00,37.4,30.0,30.20,West,267,5.0,10.0,74,0.00,,,0.00,weatherlink.com 1.10,2013-11-09 06:42:00,
2013-11-09 01:57:00,37.5,30.0,30.20,West,271,3.0,9.0,74,0.00,,,0.00,weatherlink.com 1.10,2013-11-09 06:57:00,
2013-11-09 02:12:00,37.5,30.0,30.20,WSW,255,3.0,7.0,75,0.00,,,0.00,weatherlink.com 1.10,2013-11-09 07:12:00,
2013-11-09 02:27:00,37.3,30.0,30.20,WNW,288,4.0,6.0,75,0.00,,,0.00,weatherlink.com 1.10,2013-11-09 07:27:00,
2013-11-09 02:42:00,37.4,30.0,30.20,West,277,2.0,6.0,75,0.00,,,0.00,weatherlink.com 1.10,2013-11-09 07:42:00,
2013-11-09 02:57:00,37.3,30.0,30.20,NW,306,2.0,4.0,74,0.00,,,0.00,weatherlink.com 1.10,2013-11-09 07:57:00,
2013-11-09 03:12:00,37.2,30.0,30.19,West,259,2.0,3.0,75,0.00,,,0.00,weatherlink.com 1.10,2013-11-09 08:12:00,
2013-11-09 03:27:00,37.1,30.0,30.20,WSW,257,2.0,4.0,75,0.00,,,0.00,weatherlink.com 1.10,2013-11-09 08:27:00,
2013-11-09 03:42:00,36.9,30.0,30.20,WSW,247,2.0,3.0,75,0.00,,,0.00,weatherlink.com 1.10,2013-11-09 08:42:00,
2013-11-09 03:57:00,36.5,30.0,30.20,WSW,246,1.0,3.0,76,0.00,,,0.00,weatherlink.com 1.10,2013-11-09 08:57:00,
2013-11-09 04:12:00,36.5,29.0,30.20,West,269,2.0,4.0,75,0.00,,,0.00,weatherlink.com 1.10,2013-11-09 09:12:00,
2013-11-09 04:27:00,36.3,29.0,30.20,West,262,1.0,2.0,75,0.00,,,0.00,weatherlink.com 1.10,2013-11-09 09:27:00,
2013-11-09 04:42:00,35.9,29.0,30.20,West,262,0.0,1.0,76,0.00,,,0.00,weatherlink.com 1.10,2013-11-09 09:42:00,
2013-11-09 04:57:00,35.1,29.0,30.20,West,262,0.0,0.0,77,0.00,,,0.00,weatherlink.com 1.10,2013-11-09 09:57:00,
2013-11-09 05:12:00,34.4,28.0,30.20,WSW,258,1.0,2.0,78,0.00,,,0.00,weatherlink.com 1.10,2013-11-09 10:12:00,
2013-11-09 05:27:00,33.7,28.0,30.19,WSW,252,0.0,1.0,80,0.00,,,0.00,weatherlink.com 1.10,2013-11-09 10:27:00,
2013-11-09 05:42:00,32.8,28.0,30.20,WSW,252,0.0,1.0,82,0.00,,,0.00,weatherlink.com 1.10,2013-11-09 10:42:00,
2013-11-09 05:57:00,32.4,28.0,30.19,West,274,1.0,2.0,84,0.00,,,0.00,weatherlink.com 1.10,2013-11-09 10:57:00,
2013-11-09 06:12:00,33.3,29.0,30.19,West,261,1.0,3.0,83,0.00,,,0.00,weatherlink.com 1.10,2013-11-09 11:12:00,
2013-11-09 06:27:00,34.0,29.0,30.19,WSW,250,0.0,0.0,82,0.00,,,0.00,weatherlink.com 1.10,2013-11-09 11:27:00,
2013-11-09 06:42:00,34.1,29.0,30.18,WSW,250,0.0,1.0,81,0.00,,,0.00,weatherlink.com 1.10,2013-11-09 11:42:00,
2013-11-09 06:57:00,33.9,30.0,30.19,WSW,251,0.0,1.0,86,0.00,,,0.00,weatherlink.com 1.10,2013-11-09 11:57:00,
2013-11-09 07:12:00,34.3,30.0,30.19,West,266,1.0,2.0,84,0.00,,,0.00,weatherlink.com 1.10,2013-11-09 12:12:00,
2013-11-09 07:27:00,35.3,30.0,30.19,WSW,250,2.0,3.0,82,0.00,,,0.00,weatherlink.com 1.10,2013-11-09 12:27:00,
2013-11-09 07:42:00,35.9,31.0,30.20,WSW,258,2.0,6.0,82,0.00,,,0.00,weatherlink.com 1.10,2013-11-09 12:42:00,
2013-11-09 07:57:00,36.7,31.0,30.20,West,261,2.0,6.0,80,0.00,,,0.00,weatherlink.com 1.10,2013-11-09 12:57:00,
2013-11-09 08:12:00,37.3,31.0,30.20,West,269,1.0,5.0,78,0.00,,,0.00,weatherlink.com 1.10,2013-11-09 13:12:00,
2013-11-09 08:27:00,37.7,31.0,30.19,WSW,243,2.0,6.0,77,0.00,,,0.00,weatherlink.com 1.10,2013-11-09 13:27:00,
2013-11-09 08:42:00,37.9,31.0,30.18,WSW,248,2.0,5.0,77,0.00,,,0.00,weatherlink.com 1.10,2013-11-09 13:42:00,
2013-11-09 08:57:00,38.1,32.0,30.18,WSW,245,2.0,5.0,77,0.00,,,0.00,weatherlink.com 1.10,2013-11-09 13:57:00,
2013-11-09 09:13:00,38.5,31.0,30.18,WSW,244,2.0,6.0,75,0.00,,,0.00,weatherlink.com 1.10,2013-11-09 14:13:00,
2013-11-09 09:28:00,39.0,31.0,30.18,WSW,247,4.0,8.0,74,0.00,,,0.00,weatherlink.com 1.10,2013-11-09 14:28:00,
2013-11-09 09:43:00,39.3,31.0,30.17,WSW,252,6.0,14.0,73,0.00,,,0.00,weatherlink.com 1.10,2013-11-09 14:43:00,
2013-11-09 09:58:00,38.8,32.0,30.17,WSW,255,6.0,12.0,76,0.00,,,0.00,weatherlink.com 1.10,2013-11-09 14:58:00,
2013-11-09 10:13:00,37.7,34.0,30.16,SSW,210,5.0,11.0,85,0.00,,,0.00,weatherlink.com 1.10,2013-11-09 15:13:00,
2013-11-09 10:28:00,38.0,34.0,30.14,WSW,255,2.0,5.0,86,0.00,,,0.00,weatherlink.com 1.10,2013-11-09 15:28:00,
2013-11-09 10:43:00,38.6,34.0,30.13,WSW,241,0.0,4.0,83,0.00,,,0.00,weatherlink.com 1.10,2013-11-09 15:43:00,
2013-11-09 10:58:00,39.2,34.0,30.11,SE,135,2.0,4.0,82,0.00,,,0.00,weatherlink.com 1.10,2013-11-09 15:58:00,
2013-11-09 11:13:00,39.9,35.0,30.08,SE,129,6.0,6.0,81,0.00,,,0.00,weatherlink.com 1.10,2013-11-09 16:13:00,
2013-11-09 11:28:00,41.1,35.0,30.07,SW,227,2.0,8.0,79,0.00,,,0.00,weatherlink.com 1.10,2013-11-09 16:28:00,
2013-11-09 11:43:00,42.0,35.0,30.05,SE,134,4.0,9.0,76,0.00,,,0.00,weatherlink.com 1.10,2013-11-09 16:43:00,
2013-11-09 11:58:00,42.5,34.0,30.05,SSE,163,2.0,8.0,73,0.00,,,0.00,weatherlink.com 1.10,2013-11-09 16:58:00,
2013-11-09 12:13:00,43.4,33.0,30.04,South,182,0.0,9.0,68,0.00,,,0.00,weatherlink.com 1.10,2013-11-09 17:13:00,
2013-11-09 12:28:00,44.1,33.0,30.01,West,262,3.0,8.0,65,0.00,,,0.00,weatherlink.com 1.10,2013-11-09 17:28:00,
2013-11-09 12:43:00,44.8,33.0,30.00,South,173,3.0,7.0,63,0.00,,,0.00,weatherlink.com 1.10,2013-11-09 17:43:00,
2013-11-09 12:58:00,45.0,31.0,29.98,South,184,3.0,10.0,58,0.00,,,0.00,weatherlink.com 1.10,2013-11-09 17:58:00,
2013-11-09 13:13:00,45.3,31.0,29.97,SSE,168,4.0,8.0,58,0.00,,,0.00,weatherlink.com 1.10,2013-11-09 18:13:00,
2013-11-09 13:28:00,45.3,30.0,29.96,SSE,151,7.0,10.0,55,0.00,,,0.00,weatherlink.com 1.10,2013-11-09 18:28:00,
2013-11-09 13:43:00,45.4,30.0,29.95,WSW,253,1.0,11.0,56,0.00,,,0.00,weatherlink.com 1.10,2013-11-09 18:43:00,
2013-11-09 13:59:00,45.2,30.0,29.94,WSW,251,0.0,12.0,56,0.00,,,0.00,weatherlink.com 1.10,2013-11-09 18:59:00,
2013-11-09 14:14:00,44.8,31.0,29.94,South,170,1.0,4.0,59,0.00,,,0.00,weatherlink.com 1.10,2013-11-09 19:14:00,
2013-11-09 14:29:00,44.2,31.0,29.94,SW,231,1.0,5.0,60,0.00,,,0.00,weatherlink.com 1.10,2013-11-09 19:29:00,
2013-11-09 14:44:00,44.1,31.0,29.92,SSE,163,3.0,5.0,61,0.00,,,0.00,weatherlink.com 1.10,2013-11-09 19:44:00,
2013-11-09 14:59:00,44.4,31.0,29.92,South,185,3.0,8.0,59,0.00,,,0.00,weatherlink.com 1.10,2013-11-09 19:59:00,
2013-11-09 15:14:00,44.3,30.0,29.92,SSE,165,3.0,6.0,58,0.00,,,0.00,weatherlink.com 1.10,2013-11-09 20:14:00,
2013-11-09 15:29:00,44.3,31.0,29.91,South,172,0.0,5.0,59,0.00,,,0.00,weatherlink.com 1.10,2013-11-09 20:29:00,
2013-11-09 15:44:00,44.3,30.0,29.91,SE,143,4.0,6.0,58,0.00,,,0.00,weatherlink.com 1.10,2013-11-09 20:44:00,
2013-11-09 15:59:00,44.3,30.0,29.90,SSE,158,2.0,6.0,58,0.00,,,0.00,weatherlink.com 1.10,2013-11-09 20:59:00,
2013-11-09 16:14:00,44.0,30.0,29.89,SSE,148,2.0,6.0,59,0.00,,,0.00,weatherlink.com 1.10,2013-11-09 21:14:00,
2013-11-09 16:29:00,43.9,30.0,29.89,SW,215,3.0,6.0,59,0.00,,,0.00,weatherlink.com 1.10,2013-11-09 21:29:00,
2013-11-09 16:44:00,43.9,30.0,29.88,SE,144,3.0,6.0,59,0.00,,,0.00,weatherlink.com 1.10,2013-11-09 21:44:00,
2013-11-09 16:59:00,43.7,30.0,29.88,WSW,238,0.0,7.0,60,0.00,,,0.00,weatherlink.com 1.10,2013-11-09 21:59:00,
2013-11-09 17:14:00,43.8,30.0,29.88,South,170,4.0,7.0,59,0.00,,,0.00,weatherlink.com 1.10,2013-11-09 22:14:00,
2013-11-09 17:29:00,44.1,30.0,29.88,South,172,2.0,7.0,59,0.00,,,0.00,weatherlink.com 1.10,2013-11-09 22:29:00,
2013-11-09 17:44:00,44.3,31.0,29.88,SE,144,1.0,8.0,59,0.00,,,0.00,weatherlink.com 1.10,2013-11-09 22:44:00,
2013-11-09 17:59:00,44.5,30.0,29.88,SSE,147,4.0,6.0,58,0.00,,,0.00,weatherlink.com 1.10,2013-11-09 22:59:00,
2013-11-09 18:14:00,44.7,31.0,29.88,WSW,248,1.0,7.0,58,0.00,,,0.00,weatherlink.com 1.10,2013-11-09 23:14:00,
2013-11-09 18:29:00,44.9,31.0,29.88,SE,139,3.0,8.0,58,0.00,,,0.00,weatherlink.com 1.10,2013-11-09 23:29:00,
2013-11-09 18:44:00,44.9,31.0,29.87,WSW,246,1.0,8.0,58,0.00,,,0.00,weatherlink.com 1.10,2013-11-09 23:44:00,
2013-11-09 18:59:00,44.9,31.0,29.87,WSW,241,1.0,6.0,59,0.00,,,0.00,weatherlink.com 1.10,2013-11-09 23:59:00,
2013-11-09 19:14:00,44.9,32.0,29.86,SSE,157,2.0,4.0,60,0.00,,,0.00,weatherlink.com 1.10,2013-11-10 00:14:00,
2013-11-09 19:29:00,45.1,32.0,29.86,SSE,148,3.0,6.0,60,0.00,,,0.00,weatherlink.com 1.10,2013-11-10 00:29:00,
2013-11-09 19:44:00,45.3,32.0,29.85,SSW,194,3.0,4.0,60,0.00,,,0.00,weatherlink.com 1.10,2013-11-10 00:44:00,
2013-11-09 19:59:00,45.4,32.0,29.84,SW,230,1.0,5.0,59,0.00,,,0.00,weatherlink.com 1.10,2013-11-10 00:59:00,
2013-11-09 20:14:00,45.4,32.0,29.84,SSE,162,2.0,4.0,60,0.00,,,0.00,weatherlink.com 1.10,2013-11-10 01:14:00,
2013-11-09 20:29:00,45.2,32.0,29.84,South,174,1.0,4.0,60,0.00,,,0.00,weatherlink.com 1.10,2013-11-10 01:29:00,
2013-11-09 20:44:00,45.1,32.0,29.84,SSW,200,1.0,2.0,61,0.00,,,0.00,weatherlink.com 1.10,2013-11-10 01:44:00,
2013-11-09 20:59:00,45.9,33.0,29.83,SSE,163,2.0,8.0,60,0.00,,,0.00,weatherlink.com 1.10,2013-11-10 01:59:00,
2013-11-09 21:14:00,47.0,34.0,29.82,West,261,2.0,8.0,60,0.00,,,0.00,weatherlink.com 1.10,2013-11-10 02:14:00,
2013-11-09 21:29:00,47.0,35.0,29.80,WSW,237,5.0,10.0,63,0.00,,,0.00,weatherlink.com 1.10,2013-11-10 02:29:00,
2013-11-09 21:44:00,47.5,36.0,29.80,WSW,241,6.0,10.0,64,0.00,,,0.00,weatherlink.com 1.10,2013-11-10 02:44:00,
2013-11-09 21:59:00,47.5,38.0,29.79,SW,235,2.0,6.0,69,0.00,,,0.00,weatherlink.com 1.10,2013-11-10 02:59:00,
2013-11-09 22:14:00,47.5,39.0,29.78,WSW,246,6.0,10.0,71,0.00,,,0.00,weatherlink.com 1.10,2013-11-10 03:14:00,
2013-11-09 22:29:00,47.9,39.0,29.77,SW,236,4.0,11.0,71,0.00,,,0.00,weatherlink.com 1.10,2013-11-10 03:29:00,
2013-11-09 22:45:00,48.2,40.0,29.77,West,262,2.0,7.0,72,0.00,,,0.00,weatherlink.com 1.10,2013-11-10 03:45:00,
2013-11-09 23:15:00,49.7,39.0,29.76,WSW,254,7.0,14.0,68,0.00,,,0.00,weatherlink.com 1.10,2013-11-10 04:15:00,
2013-11-09 23:30:00,50.5,40.0,29.76,West,262,9.0,21.0,68,0.00,,,0.00,weatherlink.com 1.10,2013-11-10 04:30:00,
2013-11-09 23:45:00,50.8,41.0,29.77,West,281,8.0,21.0,68,0.00,,,0.00,weatherlink.com 1.10,2013-11-10 04:45:00,